Time;durP1;ratioP1;P1;durP2;ratioP2;P2;SDS_P1;SDS_P2;PMS_P1;PMS_P2;Temp;Humidity;BMP_temperature;BMP_pressure;BME280_temperature;BME280_humidity;BME280_pressure;Samples;Min_cycle;Max_cycle;Signal;HPM_P1;HPM_P2
2023/03/01 00:00:04;;;;;;;11.70;11.40;;;18.80;42.00;;;;;;4934200;29;20888;-60
2023/03/01 00:02:31;;;;;;;11.80;11.40;;;18.80;42.10;;;;;;4934028;29;20477;-57
2023/03/01 00:04:57;;;;;;;12.73;12.33;;;18.70;42.00;;;;;;4951988;29;20488;-59
2023/03/01 00:07:24;;;;;;;12.53;12.13;;;18.70;42.00;;;;;;4953216;28;20536;-57
2023/03/01 00:09:51;;;;;;;12.00;11.60;;;18.70;42.10;;;;;;4954526;28;20924;-58
2023/03/01 00:12:19;;;;;;;13.10;12.70;;;18.70;42.20;;;;;;4956870;28;20923;-60
2023/03/01 00:14:46;;;;;;;13.93;13.53;;;18.70;42.30;;;;;;4939987;28;20540;-57
2023/03/01 00:17:13;;;;;;;12.60;12.10;;;18.70;42.30;;;;;;4937685;29;20528;-60
2023/03/01 00:19:40;;;;;;;12.93;12.50;;;18.70;42.20;;;;;;4937665;29;20537;-60
2023/03/01 00:22:07;;;;;;;14.10;13.40;;;18.70;42.30;;;;;;4937609;29;20559;-58
2023/03/01 00:24:34;;;;;;;12.30;11.90;;;18.70;42.30;;;;;;4951827;29;20548;-59
2023/03/01 00:27:00;;;;;;;12.60;12.20;;;18.60;42.20;;;;;;4956583;28;20558;-60
2023/03/01 00:29:29;;;;;;;12.30;11.90;;;18.60;42.20;;;;;;4956594;28;21083;-61
2023/03/01 00:31:55;;;;;;;12.20;11.80;;;18.60;42.20;;;;;;4949563;28;20548;-57
2023/03/01 00:34:22;;;;;;;13.77;13.20;;;18.60;42.20;;;;;;4937329;29;20541;-59
2023/03/01 00:36:49;;;;;;;12.70;12.30;;;18.60;42.30;;;;;;4937157;29;20544;-58
2023/03/01 00:39:16;;;;;;;12.53;12.13;;;18.60;42.30;;;;;;4937356;29;20540;-57
2023/03/01 00:41:44;;;;;;;12.63;12.23;;;18.60;42.30;;;;;;4941810;29;20913;-60
2023/03/01 00:44:11;;;;;;;12.40;12.10;;;18.60;42.40;;;;;;4956385;28;20457;-60
2023/03/01 00:46:40;;;;;;;11.70;11.40;;;18.60;42.40;;;;;;4956126;28;21028;-59
2023/03/01 00:49:06;;;;;;;13.07;12.60;;;18.60;42.50;;;;;;4956150;28;20547;-60
2023/03/01 00:51:34;;;;;;;12.70;12.20;;;18.60;42.40;;;;;;4952482;28;20560;-59
2023/03/01 00:54:02;;;;;;;11.67;11.27;;;18.60;42.50;;;;;;4936983;29;20540;-60
2023/03/01 00:56:30;;;;;;;12.40;12.00;;;18.60;42.50;;;;;;4936883;29;20536;-59
2023/03/01 00:58:57;;;;;;;12.30;11.90;;;18.50;42.40;;;;;;4936959;29;20933;-60
2023/03/01 01:01:27;;;;;;;11.70;11.37;;;18.50;42.40;;;;;;4938602;29;21060;-60
2023/03/01 01:03:58;;;;;;;12.20;11.90;;;18.50;42.40;;;;;;4956027;28;20453;-58
2023/03/01 01:06:26;;;;;;;12.37;12.07;;;18.50;42.50;;;;;;4955902;28;20875;-58
2023/03/01 01:08:54;;;;;;;12.33;11.90;;;18.50;42.50;;;;;;4955961;28;20887;-56
2023/03/01 01:11:23;;;;;;;12.30;11.90;;;18.50;42.50;;;;;;4940573;28;20579;-55
2023/03/01 01:13:50;;;;;;;14.03;13.53;;;18.50;42.50;;;;;;4936671;29;20540;-57
2023/03/01 01:16:18;;;;;;;13.27;12.87;;;18.50;42.60;;;;;;4936528;29;20536;-58
2023/03/01 01:18:46;;;;;;;12.33;11.93;;;18.50;42.50;;;;;;4936552;29;20544;-58
2023/03/01 01:21:17;;;;;;;13.23;12.73;;;18.50;42.60;;;;;;4936443;29;20473;-58
2023/03/01 01:23:46;;;;;;;13.40;12.70;;;18.50;42.60;;;;;;4936506;29;20532;-58
2023/03/01 01:26:19;;;;;;;12.13;11.83;;;18.50;42.60;;;;;;4936206;29;21008;-58
2023/03/01 01:28:46;;;;;;;12.37;12.00;;;18.40;42.50;;;;;;4936325;29;20548;-58
2023/03/01 01:31:13;;;;;;;12.37;11.90;;;18.40;42.60;;;;;;4949013;28;20542;-54
2023/03/01 01:33:40;;;;;;;12.60;12.20;;;18.50;42.70;;;;;;4955385;28;20531;-54
2023/03/01 01:36:08;;;;;;;13.50;13.10;;;18.40;42.70;;;;;;4949698;28;20872;-54
2023/03/01 01:38:37;;;;;;;11.87;11.53;;;18.40;42.60;;;;;;4936276;29;20541;-55
2023/03/01 01:41:05;;;;;;;13.07;12.57;;;18.40;42.60;;;;;;4939969;29;20556;-59
2023/03/01 01:43:34;;;;;;;12.33;11.93;;;18.40;42.60;;;;;;4936146;29;20545;-59
2023/03/01 01:46:04;;;;;;;13.30;12.80;;;18.40;42.60;;;;;;4935912;29;20541;-54
2023/03/01 01:48:41;;;;;;;13.63;13.13;;;18.40;42.60;;;;;;4936094;29;20537;-56
2023/03/01 01:51:11;;;;;;;13.37;12.97;;;18.40;42.70;;;;;;4953813;28;20525;-59
2023/03/01 01:53:40;;;;;;;12.63;12.13;;;18.40;42.70;;;;;;4955076;28;20547;-60
2023/03/01 01:56:10;;;;;;;12.80;12.40;;;18.40;42.70;;;;;;4954888;28;20453;-56
2023/03/01 01:58:37;;;;;;;12.70;12.40;;;18.40;42.80;;;;;;4955070;28;20453;-61
2023/03/01 02:01:05;;;;;;;13.10;12.70;;;18.40;42.80;;;;;;4954445;28;21020;-59
2023/03/01 02:03:37;;;;;;;13.10;12.60;;;18.40;42.80;;;;;;4954901;28;20527;-54
2023/03/01 02:06:08;;;;;;;12.13;11.73;;;18.40;42.80;;;;;;4954695;28;20505;-54
2023/03/01 02:08:38;;;;;;;13.00;12.60;;;18.40;42.80;;;;;;4954922;28;20540;-60
2023/03/01 02:11:07;;;;;;;12.43;12.03;;;18.40;42.90;;;;;;4937111;28;20576;-54
2023/03/01 02:13:35;;;;;;;12.40;12.00;;;18.40;42.90;;;;;;4935670;29;20540;-59
2023/03/01 02:16:04;;;;;;;12.50;11.83;;;18.40;42.90;;;;;;4936300;29;20537;-53
2023/03/01 02:18:31;;;;;;;13.40;12.90;;;18.40;43.00;;;;;;4935588;29;20481;-59
2023/03/01 02:21:12;;;;;;;12.60;12.20;;;18.40;43.00;;;;;;4935445;29;20588;-54
2023/03/01 02:23:39;;;;;;;12.37;11.90;;;18.40;43.00;;;;;;4935793;29;20536;-56
2023/03/01 02:26:13;;;;;;;12.87;12.47;;;18.40;43.00;;;;;;4954262;28;20531;-55
2023/03/01 02:28:44;;;;;;;12.87;12.37;;;18.30;42.90;;;;;;4954447;28;20452;-60
2023/03/01 02:34:03;;;;;;;13.97;13.37;;;18.30;43.00;;;;;;4954326;29;20423;-57
2023/03/01 02:36:35;;;;;;;12.67;12.17;;;18.40;43.00;;;;;;4954199;28;20507;-59
2023/03/01 02:39:05;;;;;;;12.20;11.90;;;18.30;43.00;;;;;;4952252;28;20527;-57
2023/03/01 02:41:36;;;;;;;13.13;12.73;;;18.30;43.00;;;;;;4935086;29;20470;-58
2023/03/01 02:44:05;;;;;;;12.73;12.33;;;18.40;43.20;;;;;;4935035;29;20536;-60
2023/03/01 02:46:32;;;;;;;11.87;11.57;;;18.40;43.20;;;;;;4934797;29;20960;-58
2023/03/01 02:48:59;;;;;;;12.50;12.10;;;18.30;43.20;;;;;;4935808;29;20537;-57
2023/03/01 02:51:43;;;;;;;14.30;13.77;;;18.30;43.10;;;;;;4953911;28;21078;-57
2023/03/01 02:54:21;;;;;;;12.60;12.10;;;18.30;43.10;;;;;;4954237;28;20457;-61
2023/03/01 02:56:49;;;;;;;12.40;11.90;;;18.30;43.10;;;;;;4953755;28;20535;-60
2023/03/01 02:59:18;;;;;;;12.00;11.70;;;18.30;43.10;;;;;;4950905;28;20453;-57
2023/03/01 03:01:46;;;;;;;12.33;11.93;;;18.30;43.10;;;;;;4934681;29;20547;-58
2023/03/01 03:04:16;;;;;;;12.87;12.50;;;18.30;43.10;;;;;;4934785;29;20509;-57
2023/03/01 03:06:44;;;;;;;12.70;12.40;;;18.30;43.10;;;;;;4934534;29;20453;-60
2023/03/01 03:09:11;;;;;;;11.83;11.43;;;18.30;43.10;;;;;;4936634;29;20533;-60
2023/03/01 03:11:39;;;;;;;12.70;12.23;;;18.30;43.10;;;;;;4954131;28;20904;-59
2023/03/01 03:14:12;;;;;;;13.20;12.70;;;18.30;43.10;;;;;;4953769;28;20461;-55
2023/03/01 03:16:41;;;;;;;13.70;13.30;;;18.30;43.20;;;;;;4953652;28;20460;-58
2023/03/01 03:19:08;;;;;;;12.23;11.83;;;18.30;43.20;;;;;;4938557;28;20540;-57
2023/03/01 03:21:36;;;;;;;11.93;11.43;;;18.30;43.20;;;;;;4934607;29;20557;-56
2023/03/01 03:24:02;;;;;;;12.30;11.90;;;18.30;43.20;;;;;;4934506;29;20545;-57
2023/03/01 03:26:30;;;;;;;12.83;12.33;;;18.30;43.20;;;;;;4934241;29;20489;-58
2023/03/01 03:28:57;;;;;;;12.13;11.53;;;18.30;43.20;;;;;;4947549;29;20536;-61
2023/03/01 03:31:24;;;;;;;12.80;12.40;;;18.30;43.20;;;;;;4953655;28;20487;-59
2023/03/01 03:33:52;;;;;;;13.30;12.70;;;18.20;43.10;;;;;;4953472;28;20527;-60
2023/03/01 03:36:21;;;;;;;12.23;11.73;;;18.20;43.10;;;;;;4953420;28;20832;-62
2023/03/01 03:38:48;;;;;;;12.60;12.20;;;18.20;43.10;;;;;;4941408;28;20541;-61
2023/03/01 03:41:16;;;;;;;12.27;11.87;;;18.20;43.10;;;;;;4934243;29;20547;-59
2023/03/01 03:43:43;;;;;;;11.40;11.10;;;18.30;43.20;;;;;;4935803;29;20761;-59
2023/03/01 03:46:11;;;;;;;13.37;12.87;;;18.30;43.20;;;;;;4941834;29;20877;-60
2023/03/01 03:48:40;;;;;;;12.90;12.40;;;18.20;43.70;;;;;;4957453;28;20539;-60
2023/03/01 03:51:11;;;;;;;12.47;12.07;;;18.30;43.30;;;;;;4957277;28;20575;-59
2023/03/01 03:53:38;;;;;;;13.23;12.73;;;18.20;43.20;;;;;;4957320;28;20551;-62
2023/03/01 03:56:05;;;;;;;12.60;12.20;;;18.20;43.20;;;;;;4953772;28;20533;-60
2023/03/01 03:58:32;;;;;;;13.37;12.73;;;18.20;43.20;;;;;;4956094;29;21028;-62
2023/03/01 04:01:00;;;;;;;12.47;12.07;;;18.30;43.20;;;;;;4957089;28;20914;-56
2023/03/01 04:03:28;;;;;;;12.60;12.20;;;18.20;43.10;;;;;;4957143;28;20453;-61
2023/03/01 04:05:55;;;;;;;12.43;12.13;;;18.20;43.10;;;;;;4956213;28;20532;-61
2023/03/01 04:08:24;;;;;;;12.63;12.10;;;18.30;43.20;;;;;;4957027;28;20559;-62
2023/03/01 04:10:52;;;;;;;12.43;12.13;;;18.20;43.10;;;;;;4956670;28;20587;-60
2023/03/01 04:13:22;;;;;;;11.90;11.60;;;18.20;43.10;;;;;;4956975;28;20539;-59
2023/03/01 04:15:50;;;;;;;13.27;12.87;;;18.30;43.10;;;;;;4956125;28;21024;-60
2023/03/01 04:18:18;;;;;;;12.87;12.47;;;18.20;43.10;;;;;;4937740;29;20456;-60
2023/03/01 04:20:46;;;;;;;12.30;11.90;;;18.30;43.10;;;;;;4937584;29;20449;-61
2023/03/01 04:23:15;;;;;;;12.70;12.27;;;18.30;43.10;;;;;;4937471;29;20877;-61
2023/03/01 04:25:49;;;;;;;12.10;11.77;;;18.30;43.10;;;;;;4937557;29;20457;-61
2023/03/01 04:28:16;;;;;;;12.37;11.97;;;18.30;43.10;;;;;;4918561;29;20453;-62
2023/03/01 04:30:43;;;;;;;12.80;12.20;;;18.30;43.10;;;;;;4918334;29;20573;-63
2023/03/01 04:33:10;;;;;;;13.10;12.60;;;18.30;43.10;;;;;;4918342;29;20537;-60
2023/03/01 04:35:38;;;;;;;12.80;12.40;;;18.30;43.10;;;;;;4918266;29;20553;-59
2023/03/01 04:38:05;;;;;;;13.17;12.67;;;18.30;43.10;;;;;;4954221;29;20528;-62
2023/03/01 04:40:32;;;;;;;12.67;12.27;;;18.30;43.10;;;;;;4956707;28;20540;-60
2023/03/01 04:43:00;;;;;;;14.93;14.23;;;18.30;43.10;;;;;;4956291;28;20565;-62
2023/03/01 04:45:27;;;;;;;12.80;12.40;;;18.30;43.10;;;;;;4956213;28;20540;-63
2023/03/01 04:47:54;;;;;;;13.40;12.93;;;18.30;43.10;;;;;;4939741;28;20544;-61
2023/03/01 04:50:23;;;;;;;12.90;12.50;;;18.30;43.10;;;;;;4937056;29;20619;-59
2023/03/01 04:52:50;;;;;;;13.10;12.67;;;18.30;43.10;;;;;;4937049;29;20504;-60
2023/03/01 04:55:17;;;;;;;12.20;11.90;;;18.30;43.00;;;;;;4944611;28;20579;-60
2023/03/01 04:57:44;;;;;;;13.00;12.60;;;18.30;43.10;;;;;;4956041;28;20527;-61
2023/03/01 05:00:23;;;;;;;13.17;12.77;;;18.30;43.00;;;;;;4956404;28;20543;-61
2023/03/01 05:02:53;;;;;;;13.73;13.23;;;18.40;43.00;;;;;;4956044;28;20543;-62
2023/03/01 05:05:25;;;;;;;13.73;13.23;;;18.30;43.00;;;;;;4947115;28;20458;-60
2023/03/01 05:07:52;;;;;;;11.83;11.53;;;18.30;43.00;;;;;;4936752;29;20545;-63
2023/03/01 05:10:19;;;;;;;13.43;13.03;;;18.30;42.90;;;;;;4936846;29;20532;-62
2023/03/01 05:12:47;;;;;;;12.97;12.47;;;18.40;43.10;;;;;;4936777;29;21060;-62
2023/03/01 05:15:15;;;;;;;13.20;12.70;;;18.30;43.10;;;;;;4944229;29;20458;-62
2023/03/01 05:17:42;;;;;;;13.13;12.63;;;18.40;43.20;;;;;;4955707;28;20456;-61
2023/03/01 05:20:10;;;;;;;13.23;12.50;;;18.40;43.20;;;;;;4956063;28;20540;-60
2023/03/01 05:22:38;;;;;;;14.00;13.60;;;18.40;43.20;;;;;;4955209;28;20469;-62
2023/03/01 05:25:06;;;;;;;14.97;14.20;;;18.40;43.20;;;;;;4936319;29;20541;-60
2023/03/01 05:27:34;;;;;;;13.90;13.50;;;18.40;42.50;;;;;;4936551;29;20933;-59
2023/03/01 05:30:13;;;;;;;14.57;13.40;;;18.40;42.40;;;;;;4936388;29;20540;-62
2023/03/01 05:32:43;;;;;;;15.03;14.50;;;18.40;43.30;;;;;;4936307;29;20492;-60
2023/03/01 05:35:12;;;;;;;15.60;14.93;;;18.50;42.80;;;;;;4955434;28;20840;-61
2023/03/01 05:37:41;;;;;;;15.53;14.93;;;18.50;42.80;;;;;;4955410;28;20464;-60
2023/03/01 05:40:15;;;;;;;15.60;14.73;;;18.60;43.20;;;;;;4955384;28;20999;-62
2023/03/01 05:42:43;;;;;;;14.53;13.80;;;18.60;43.80;;;;;;4955019;28;20468;-61
2023/03/01 05:45:12;;;;;;;15.20;14.30;;;18.60;44.10;;;;;;4936239;29;20528;-60
2023/03/01 05:47:43;;;;;;;15.67;15.07;;;18.60;44.40;;;;;;4936095;29;20817;-62
2023/03/01 05:50:12;;;;;;;14.93;14.17;;;18.60;43.80;;;;;;4936054;29;20457;-65
2023/03/01 05:52:38;;;;;;;15.40;14.80;;;18.60;44.60;;;;;;4935805;29;20576;-58
2023/03/01 05:55:07;;;;;;;16.07;14.97;;;18.70;47.00;;;;;;4936137;28;20536;-59
2023/03/01 05:57:34;;;;;;;14.90;14.20;;;18.70;48.20;;;;;;4936021;29;20875;-62
2023/03/01 06:00:00;;;;;;;14.73;14.20;;;18.80;48.60;;;;;;4936056;29;21005;-63
2023/03/01 06:02:29;;;;;;;14.25;13.27;;;18.80;48.70;;;;;;4942479;29;20527;-61
2023/03/01 06:04:57;;;;;;;15.70;15.10;;;18.90;48.40;;;;;;4954911;28;20205;-61
2023/03/01 06:07:24;;;;;;;15.53;15.03;;;19.00;48.80;;;;;;4955027;28;20453;-61
2023/03/01 06:09:51;;;;;;;14.03;13.53;;;19.10;48.00;;;;;;4956574;28;20548;-63
2023/03/01 06:12:18;;;;;;;14.00;13.50;;;19.20;47.40;;;;;;4946711;28;20564;-62
2023/03/01 06:14:47;;;;;;;13.87;13.47;;;19.20;47.20;;;;;;4937005;29;20527;-62
2023/03/01 06:17:13;;;;;;;14.90;14.30;;;19.40;47.20;;;;;;4936222;29;20449;-62
2023/03/01 06:19:40;;;;;;;14.30;13.47;;;19.50;47.00;;;;;;4936357;29;20540;-62
2023/03/01 06:22:09;;;;;;;14.63;13.93;;;19.50;46.50;;;;;;4943833;29;20560;-62
2023/03/01 06:24:36;;;;;;;13.70;13.30;;;19.70;46.30;;;;;;4956274;28;20456;-63
2023/03/01 06:27:02;;;;;;;14.73;14.10;;;19.70;46.10;;;;;;4961325;28;20495;-63
2023/03/01 06:29:29;;;;;;;14.60;13.93;;;19.80;45.90;;;;;;4962456;28;20868;-62
2023/03/01 06:31:56;;;;;;;15.17;14.47;;;19.90;45.80;;;;;;4955866;28;20546;-63
2023/03/01 06:34:23;;;;;;;14.23;13.53;;;19.90;45.80;;;;;;4942071;29;20540;-63
2023/03/01 06:36:50;;;;;;;16.03;14.77;;;20.00;45.80;;;;;;4941527;29;20485;-63
2023/03/01 06:39:18;;;;;;;17.57;13.80;;;20.00;45.80;;;;;;4942169;29;20484;-63
2023/03/01 06:41:45;;;;;;;15.50;14.53;;;20.10;45.90;;;;;;4939363;29;21024;-62
2023/03/01 06:44:12;;;;;;;16.63;14.87;;;20.10;45.90;;;;;;4935155;29;20537;-63
2023/03/01 06:46:40;;;;;;;14.80;13.90;;;20.10;46.00;;;;;;4934935;29;21016;-63
2023/03/01 06:49:09;;;;;;;14.80;13.60;;;20.10;46.10;;;;;;4937229;29;20979;-62
2023/03/01 06:51:36;;;;;;;12.97;12.17;;;20.00;48.20;;;;;;4947813;28;20488;-60
2023/03/01 06:54:03;;;;;;;13.17;12.37;;;20.00;48.60;;;;;;4954226;28;20880;-60
2023/03/01 06:56:32;;;;;;;15.00;14.00;;;20.00;48.60;;;;;;4954069;28;20527;-60
2023/03/01 06:58:59;;;;;;;17.97;12.50;;;20.10;48.60;;;;;;4953830;28;20543;-61
2023/03/01 07:01:26;;;;;;;13.50;12.20;;;20.10;48.50;;;;;;4953803;28;20555;-63
2023/03/01 07:03:53;;;;;;;15.67;14.30;;;20.10;48.20;;;;;;4953916;28;20539;-62
2023/03/01 07:06:20;;;;;;;19.60;14.10;;;20.10;48.40;;;;;;4953670;28;20531;-62
2023/03/01 07:08:46;;;;;;;15.03;13.37;;;20.10;47.70;;;;;;4953921;28;20540;-60
2023/03/01 07:11:14;;;;;;;15.07;14.00;;;20.10;47.40;;;;;;4953547;28;20615;-62
2023/03/01 07:13:42;;;;;;;13.43;12.47;;;20.10;47.20;;;;;;4954175;28;20696;-62
2023/03/01 07:16:09;;;;;;;12.60;11.90;;;20.10;47.10;;;;;;4953573;28;20544;-64
2023/03/01 07:18:37;;;;;;;13.40;12.73;;;20.10;46.80;;;;;;4953390;28;20544;-62
2023/03/01 07:21:07;;;;;;;13.83;13.20;;;20.10;46.70;;;;;;4953525;28;20563;-62
2023/03/01 07:23:34;;;;;;;13.60;12.37;;;20.20;46.60;;;;;;4953708;28;20523;-61
2023/03/01 07:26:01;;;;;;;13.37;12.50;;;20.20;46.40;;;;;;4953494;28;20540;-63
2023/03/01 07:28:28;;;;;;;13.70;12.63;;;20.20;46.30;;;;;;4953559;28;20527;-61
2023/03/01 07:31:01;;;;;;;13.00;12.30;;;20.20;46.10;;;;;;4953672;28;20710;-62
2023/03/01 07:33:28;;;;;;;13.83;13.20;;;20.20;46.10;;;;;;4953414;28;20476;-63
2023/03/01 07:35:58;;;;;;;16.87;15.50;;;20.20;45.90;;;;;;4953472;28;20531;-63
2023/03/01 07:38:25;;;;;;;13.20;12.20;;;20.20;45.80;;;;;;4953579;28;20454;-61
2023/03/01 07:40:52;;;;;;;12.67;12.17;;;20.20;45.70;;;;;;4953307;28;20880;-60
2023/03/01 07:43:20;;;;;;;13.63;12.97;;;20.20;45.60;;;;;;4953492;28;20523;-60
2023/03/01 07:45:47;;;;;;;13.90;13.00;;;20.20;45.50;;;;;;4953258;28;20503;-62
2023/03/01 07:48:15;;;;;;;12.50;11.90;;;20.20;45.40;;;;;;4953335;28;20532;-62
2023/03/01 07:50:42;;;;;;;13.87;13.17;;;20.30;45.30;;;;;;4953439;28;20554;-60
2023/03/01 07:53:09;;;;;;;11.63;11.13;;;20.30;45.30;;;;;;4953301;28;20630;-61
2023/03/01 07:55:36;;;;;;;11.50;11.10;;;20.30;45.20;;;;;;4953265;28;20540;-63
2023/03/01 07:58:03;;;;;;;11.80;11.30;;;20.30;45.10;;;;;;4953320;28;20531;-60
2023/03/01 08:00:30;;;;;;;13.57;12.80;;;20.30;45.10;;;;;;4953263;28;20547;-62
2023/03/01 08:03:00;;;;;;;13.20;12.60;;;20.30;45.00;;;;;;4953335;28;20899;-61
2023/03/01 08:05:29;;;;;;;12.60;12.00;;;20.30;44.90;;;;;;4953148;28;20451;-62
2023/03/01 08:07:56;;;;;;;13.47;12.80;;;20.30;44.80;;;;;;4953294;28;20539;-59
2023/03/01 08:10:23;;;;;;;12.63;12.13;;;20.40;44.80;;;;;;4953276;28;20881;-62
2023/03/01 08:12:53;;;;;;;13.03;12.47;;;20.40;44.80;;;;;;4953197;28;20492;-63
2023/03/01 08:15:20;;;;;;;12.63;12.03;;;20.40;44.70;;;;;;4953284;28;20452;-62
2023/03/01 08:17:50;;;;;;;13.53;13.07;;;20.40;44.70;;;;;;4953024;28;20492;-63
2023/03/01 08:20:17;;;;;;;12.90;12.40;;;20.40;44.60;;;;;;4953145;28;20580;-62
2023/03/01 08:22:45;;;;;;;12.57;11.97;;;20.40;44.60;;;;;;4953111;28;20552;-63
2023/03/01 08:25:12;;;;;;;12.40;11.90;;;20.40;44.50;;;;;;4953110;28;20476;-63
2023/03/01 08:27:39;;;;;;;13.03;12.33;;;20.40;44.40;;;;;;4953226;28;20531;-63
2023/03/01 08:30:07;;;;;;;14.03;12.93;;;20.40;44.40;;;;;;4953347;28;20540;-62
2023/03/01 08:32:37;;;;;;;12.40;11.80;;;20.40;44.30;;;;;;4956427;28;20488;-62
2023/03/01 08:35:04;;;;;;;12.20;11.60;;;20.50;44.40;;;;;;4956507;28;20539;-64
2023/03/01 08:37:32;;;;;;;12.43;11.93;;;20.50;44.30;;;;;;4956427;28;20535;-63
2023/03/01 08:40:01;;;;;;;12.50;12.00;;;20.50;44.30;;;;;;4956488;28;20453;-63
2023/03/01 08:42:28;;;;;;;12.10;11.70;;;20.50;44.20;;;;;;4956211;28;20869;-62
2023/03/01 08:44:54;;;;;;;11.30;10.90;;;20.50;44.20;;;;;;4956207;28;20535;-62
2023/03/01 08:47:21;;;;;;;12.20;11.67;;;20.50;44.10;;;;;;4956246;28;20491;-62
2023/03/01 08:49:50;;;;;;;11.97;11.43;;;20.50;44.10;;;;;;4956295;28;20535;-63
2023/03/01 08:52:17;;;;;;;13.17;12.30;;;20.50;44.00;;;;;;4956136;28;20958;-60
2023/03/01 08:54:44;;;;;;;12.63;12.13;;;20.50;44.00;;;;;;4956097;28;20531;-62
2023/03/01 08:57:12;;;;;;;11.87;11.33;;;20.50;43.90;;;;;;4956107;28;20864;-62
2023/03/01 08:59:40;;;;;;;12.90;12.33;;;20.60;44.00;;;;;;4956173;28;20536;-60
2023/03/01 09:02:12;;;;;;;12.00;11.60;;;20.60;43.90;;;;;;4956232;28;20469;-62
2023/03/01 09:04:39;;;;;;;13.10;12.50;;;20.60;43.90;;;;;;4955862;28;20448;-62
2023/03/01 09:07:06;;;;;;;12.40;11.80;;;20.60;43.90;;;;;;4955930;28;20540;-62
2023/03/01 09:09:33;;;;;;;13.20;12.70;;;20.60;43.80;;;;;;4956022;28;20887;-63
2023/03/01 09:11:59;;;;;;;12.17;11.57;;;20.60;43.80;;;;;;4986878;23;20573;-59
2023/03/01 09:14:28;;;;;;;11.70;11.40;;;20.60;43.80;;;;;;4976158;28;20519;-58
2023/03/01 09:16:55;;;;;;;10.80;10.50;;;20.60;43.70;;;;;;4976119;28;20531;-61
2023/03/01 09:19:21;;;;;;;11.93;11.43;;;20.60;43.70;;;;;;4975965;28;20535;-61
2023/03/01 09:21:52;;;;;;;11.90;11.40;;;20.60;43.60;;;;;;4975863;28;20551;-60
2023/03/01 09:24:22;;;;;;;10.77;10.47;;;20.60;43.50;;;;;;4975786;28;20848;-60
2023/03/01 09:26:49;;;;;;;11.50;11.13;;;20.60;43.50;;;;;;4975441;28;20885;-60
2023/03/01 09:29:17;;;;;;;11.80;11.40;;;20.60;43.50;;;;;;4976236;28;20534;-58
2023/03/01 09:31:45;;;;;;;11.70;11.30;;;20.60;43.50;;;;;;4976525;28;20559;-59
2023/03/01 09:34:13;;;;;;;11.80;11.50;;;20.70;43.60;;;;;;4976231;28;20574;-57
2023/03/01 09:36:40;;;;;;;12.00;11.60;;;20.70;43.60;;;;;;4975981;28;20515;-60
2023/03/01 09:39:07;;;;;;;10.83;10.53;;;20.70;43.50;;;;;;4975696;28;20539;-56
2023/03/01 09:41:45;;;;;;;11.73;11.10;;;20.70;43.50;;;;;;4975535;28;20539;-60
2023/03/01 09:44:24;;;;;;;11.10;10.70;;;20.70;43.40;;;;;;4976099;28;20454;-60
2023/03/01 09:46:53;;;;;;;11.60;11.10;;;20.70;43.40;;;;;;4975939;28;20524;-59
2023/03/01 09:49:23;;;;;;;11.07;10.67;;;20.70;43.40;;;;;;4975691;28;21014;-59
2023/03/01 09:51:58;;;;;;;11.70;11.30;;;20.70;43.40;;;;;;4975887;28;20880;-60
2023/03/01 09:54:25;;;;;;;11.27;10.87;;;20.70;43.30;;;;;;4975582;28;20526;-60
2023/03/01 09:57:06;;;;;;;11.60;11.10;;;20.80;43.30;;;;;;4975775;28;20531;-58
2023/03/01 09:59:46;;;;;;;11.80;11.30;;;20.80;43.30;;;;;;4975482;28;20518;-61
2023/03/01 10:02:25;;;;;;;11.90;11.50;;;20.80;43.30;;;;;;4975137;28;20550;-59
2023/03/01 10:04:54;;;;;;;12.33;11.63;;;20.70;43.30;;;;;;4975366;28;20502;-59
2023/03/01 10:07:31;;;;;;;11.60;11.20;;;20.70;43.20;;;;;;4975749;28;20444;-60
2023/03/01 10:10:00;;;;;;;12.27;11.87;;;20.80;43.30;;;;;;4975457;28;20482;-60
2023/03/01 10:12:33;;;;;;;11.67;11.30;;;20.80;43.20;;;;;;4975133;28;20484;-59
2023/03/01 10:15:06;;;;;;;11.70;11.30;;;20.80;43.20;;;;;;4975240;28;20990;-58
2023/03/01 10:17:38;;;;;;;12.20;11.80;;;20.80;43.20;;;;;;4975292;28;20539;-60
2023/03/01 10:20:21;;;;;;;11.70;11.30;;;20.80;43.20;;;;;;4975277;28;21007;-59
2023/03/01 10:22:51;;;;;;;11.73;11.33;;;20.80;43.20;;;;;;4975045;28;20539;-59
2023/03/01 10:25:25;;;;;;;12.00;11.60;;;20.80;43.20;;;;;;4975147;28;20455;-55
2023/03/01 10:27:54;;;;;;;11.10;10.70;;;20.80;43.10;;;;;;4974945;28;20452;-59
2023/03/01 10:30:26;;;;;;;12.67;12.17;;;20.90;43.20;;;;;;4975263;28;20640;-56
2023/03/01 10:32:55;;;;;;;11.90;11.40;;;20.90;43.10;;;;;;4974776;28;20578;-59
2023/03/01 10:35:24;;;;;;;12.50;12.00;;;20.90;43.10;;;;;;4974713;28;20880;-59
2023/03/01 10:38:04;;;;;;;11.70;11.20;;;20.90;43.10;;;;;;4974324;28;20543;-60
2023/03/01 10:40:31;;;;;;;11.87;11.30;;;20.90;43.10;;;;;;4974066;28;20527;-60
2023/03/01 10:43:00;;;;;;;11.70;11.20;;;20.90;43.10;;;;;;4973959;28;20500;-60
2023/03/01 10:45:34;;;;;;;11.93;11.53;;;20.90;43.00;;;;;;4974132;28;21002;-60
2023/03/01 10:48:11;;;;;;;11.73;11.33;;;20.90;43.50;;;;;;4973999;28;20875;-60
2023/03/01 10:50:39;;;;;;;11.60;11.30;;;20.90;43.00;;;;;;4973788;28;21010;-60
2023/03/01 10:53:24;;;;;;;11.37;10.93;;;20.90;42.90;;;;;;4973313;28;20983;-60
2023/03/01 10:55:59;;;;;;;12.00;11.60;;;20.90;43.00;;;;;;4974017;28;20462;-60
2023/03/01 10:58:26;;;;;;;11.47;11.07;;;20.90;43.00;;;;;;4974023;28;20530;-60
2023/03/01 11:00:55;;;;;;;11.53;11.13;;;20.90;43.00;;;;;;4973601;28;20520;-60
2023/03/01 11:03:26;;;;;;;11.37;11.00;;;21.00;43.10;;;;;;4973607;28;20475;-59
2023/03/01 11:05:56;;;;;;;11.57;11.20;;;20.90;42.90;;;;;;4974725;28;20534;-60
2023/03/01 11:08:48;;;;;;;11.20;10.80;;;21.00;43.10;;;;;;4975041;28;20867;-59
2023/03/01 11:11:25;;;;;;;12.30;11.90;;;21.00;43.00;;;;;;4969071;28;20531;-56
2023/03/01 11:13:58;;;;;;;11.20;10.80;;;21.00;43.00;;;;;;4974082;28;20487;-56
2023/03/01 11:16:32;;;;;;;12.00;11.50;;;21.00;43.00;;;;;;4973781;28;20866;-59
2023/03/01 11:19:15;;;;;;;11.50;11.20;;;21.00;42.90;;;;;;4974676;28;20543;-57
2023/03/01 11:21:48;;;;;;;10.97;10.67;;;21.00;42.90;;;;;;4974596;28;20559;-58
2023/03/01 11:24:16;;;;;;;11.70;11.30;;;21.00;42.90;;;;;;4974269;28;20530;-60
2023/03/01 11:26:47;;;;;;;11.57;11.13;;;21.10;43.00;;;;;;4973393;28;20538;-56
2023/03/01 11:29:30;;;;;;;11.27;10.80;;;21.10;43.00;;;;;;4973952;28;20522;-59
2023/03/01 11:32:00;;;;;;;10.90;10.60;;;21.10;43.00;;;;;;4973857;28;20510;-59
2023/03/01 11:34:44;;;;;;;12.40;12.00;;;21.10;42.90;;;;;;4973693;28;20567;-57
2023/03/01 11:37:22;;;;;;;11.17;10.80;;;21.10;42.90;;;;;;4973883;28;20951;-59
2023/03/01 11:39:55;;;;;;;11.40;11.03;;;21.10;42.90;;;;;;4973841;28;20832;-57
2023/03/01 11:42:29;;;;;;;12.10;11.60;;;21.10;42.90;;;;;;4973992;28;20558;-57
2023/03/01 11:45:09;;;;;;;11.73;11.23;;;21.10;42.90;;;;;;4973946;28;20551;-59
2023/03/01 11:47:52;;;;;;;12.70;12.30;;;21.10;42.90;;;;;;4974020;28;20536;-59
2023/03/01 11:50:30;;;;;;;11.90;11.50;;;21.10;42.90;;;;;;4974076;28;20479;-60
2023/03/01 11:53:26;;;;;;;11.03;10.73;;;21.20;43.00;;;;;;4974272;28;20578;-59
2023/03/01 11:56:12;;;;;;;11.27;10.97;;;21.20;43.00;;;;;;4968853;28;20542;-60
2023/03/01 11:59:02;;;;;;;12.50;12.00;;;21.20;43.00;;;;;;4974234;28;20499;-60
2023/03/01 12:01:37;;;;;;;11.60;11.20;;;21.20;43.00;;;;;;4973994;28;20894;-58
2023/03/01 12:04:29;;;;;;;11.67;11.37;;;21.20;42.90;;;;;;4974073;28;20523;-58
2023/03/01 12:07:01;;;;;;;12.27;11.97;;;21.20;42.90;;;;;;4977960;28;20544;-61
2023/03/01 12:09:39;;;;;;;11.80;11.40;;;21.20;42.90;;;;;;4976926;28;20542;-60
2023/03/01 12:12:23;;;;;;;12.40;12.00;;;21.20;42.90;;;;;;4976606;28;20585;-60
2023/03/01 12:15:01;;;;;;;12.73;12.23;;;21.20;42.90;;;;;;4977451;28;20541;-60
2023/03/01 12:17:55;;;;;;;12.10;11.70;;;21.20;42.80;;;;;;4977383;28;20538;-59
2023/03/01 12:20:28;;;;;;;11.60;11.30;;;21.30;42.90;;;;;;4977313;28;20464;-59
2023/03/01 12:23:23;;;;;;;11.40;11.10;;;21.30;42.90;;;;;;4977583;28;20551;-59
2023/03/01 12:25:57;;;;;;;11.70;11.30;;;21.30;42.90;;;;;;4976766;28;20466;-58
2023/03/01 12:28:43;;;;;;;12.07;11.47;;;21.30;42.90;;;;;;4977315;28;20527;-59
2023/03/01 12:31:38;;;;;;;11.70;11.30;;;21.30;42.80;;;;;;4977047;28;20523;-60
2023/03/01 12:34:20;;;;;;;11.53;11.13;;;21.30;42.80;;;;;;4976789;28;20821;-60
2023/03/01 12:37:15;;;;;;;11.27;10.90;;;21.30;42.80;;;;;;4976270;28;20485;-59
2023/03/01 12:39:55;;;;;;;11.87;11.40;;;21.30;42.80;;;;;;4976543;28;20542;-60
2023/03/01 12:42:28;;;;;;;11.30;10.93;;;21.30;42.70;;;;;;4976395;28;20550;-59
2023/03/01 12:45:33;;;;;;;11.30;11.00;;;21.30;42.70;;;;;;4976730;28;20526;-59